PILOTS ONLINE: 300    ATC ONLINE: 47

KGKY

Arlington Municipal Airport

Location

City Arlington
Country  United States
Latitude 32° 39' 50" N
Longitude 97° 5' 39" W
Elevation 628 ft
Type Small Airport

Map

Weather

METAR
2014/10/01 23:53
KGKY 012353Z AUTO 16011KT 10SM CLR 32/18 A2973 RMK AO2 SLP056 T03220178 10339 20306 55003
TAF
2014/10/01 21:57
TAF 
      AMD KGKY 012054Z 0121/0218 17014KT P6SM FEW030 SCT040 
     FM021100 18010KT P6SM OVC015 
     FM021600 19019KT P6SM VCSH BKN025

Runways

16/34 6080 ft / 100 ft

Outbound flights

Callsign Flying to Pilot ATD/STD ETA Aircraft

Inbound flights

Callsign Flying from Pilot ATD ETA Aircraft